Time;durP1;ratioP1;P1;durP2;ratioP2;P2;SDS_P1;SDS_P2;PMS_P1;PMS_P2;Temp;Humidity;BMP_temperature;BMP_pressure;BME280_temperature;BME280_humidity;BME280_pressure;Samples;Min_cycle;Max_cycle;Signal;HPM_P1;HPM_P2
2023/01/21 00:01:27;;;;;;;10.18;4.20;;;3.30;99.90;;;;;;5033679;28;20103;-51
2023/01/21 00:03:54;;;;;;;14.27;4.97;;;3.30;99.90;;;;;;5033171;28;20137;-53
2023/01/21 00:06:21;;;;;;;11.90;4.50;;;3.30;99.90;;;;;;5033137;28;20095;-54
2023/01/21 00:08:47;;;;;;;10.85;4.45;;;3.30;99.90;;;;;;5033390;28;20033;-52
2023/01/21 00:11:14;;;;;;;15.90;5.22;;;3.30;99.90;;;;;;5033343;28;20042;-52
2023/01/21 00:13:41;;;;;;;9.38;4.50;;;3.30;99.90;;;;;;5033034;28;20037;-51
2023/01/21 00:16:08;;;;;;;9.80;4.60;;;3.30;99.90;;;;;;5033347;28;20049;-53
2023/01/21 00:18:35;;;;;;;12.80;4.50;;;3.30;99.90;;;;;;5032389;28;20049;-55
2023/01/21 00:21:02;;;;;;;12.05;5.18;;;3.30;99.90;;;;;;5032785;28;20187;-54
2023/01/21 00:23:29;;;;;;;13.02;4.55;;;3.30;99.90;;;;;;5033078;28;20144;-53
2023/01/21 00:25:55;;;;;;;11.18;4.28;;;3.30;99.90;;;;;;5033015;28;20041;-52
2023/01/21 00:28:22;;;;;;;12.50;4.63;;;3.30;99.90;;;;;;5033077;28;20045;-51
2023/01/21 00:30:49;;;;;;;12.05;5.25;;;3.30;99.90;;;;;;5033391;28;20451;-50
2023/01/21 00:33:19;;;;;;;11.48;4.38;;;3.30;99.90;;;;;;5032292;28;20050;-50
2023/01/21 00:35:46;;;;;;;9.68;4.70;;;3.30;99.90;;;;;;5031951;28;20420;-50
2023/01/21 00:38:12;;;;;;;9.50;4.80;;;3.30;99.90;;;;;;5031998;28;20054;-51
2023/01/21 00:40:39;;;;;;;10.98;4.28;;;3.30;99.90;;;;;;5035718;28;20050;-56
2023/01/21 00:43:06;;;;;;;10.07;4.55;;;3.30;99.90;;;;;;5036878;28;20046;-51
2023/01/21 00:45:33;;;;;;;11.00;4.43;;;3.30;99.90;;;;;;5036665;28;20441;-52
2023/01/21 00:47:59;;;;;;;11.45;4.65;;;3.30;99.90;;;;;;5036958;28;20045;-54
2023/01/21 00:50:26;;;;;;;8.50;4.47;;;3.30;99.90;;;;;;5036611;28;20041;-52
2023/01/21 00:52:53;;;;;;;14.18;4.70;;;3.30;99.90;;;;;;5036649;28;20045;-50
2023/01/21 00:55:20;;;;;;;14.80;4.65;;;3.30;99.90;;;;;;5036740;28;20037;-53
2023/01/21 00:57:46;;;;;;;13.57;5.43;;;3.30;99.90;;;;;;5036391;28;20096;-52
2023/01/21 01:00:15;;;;;;;11.85;5.75;;;3.30;99.90;;;;;;5036299;28;20116;-50
2023/01/21 01:02:42;;;;;;;11.95;5.07;;;3.40;99.90;;;;;;5036263;28;20404;-54
2023/01/21 01:05:08;;;;;;;11.85;4.90;;;3.40;99.90;;;;;;5036223;28;20037;-47
2023/01/21 01:07:35;;;;;;;12.95;4.43;;;3.40;99.90;;;;;;5036580;28;20041;-51
2023/01/21 01:10:02;;;;;;;9.65;5.00;;;3.40;99.90;;;;;;5036528;28;20461;-52
2023/01/21 01:12:29;;;;;;;10.25;4.75;;;3.40;99.90;;;;;;5036405;28;20599;-52
2023/01/21 01:14:55;;;;;;;16.85;4.47;;;3.40;99.90;;;;;;5036031;28;20072;-46
2023/01/21 01:17:23;;;;;;;10.32;5.10;;;3.40;99.90;;;;;;5036093;28;20040;-46
2023/01/21 01:19:50;;;;;;;11.07;4.88;;;3.40;99.90;;;;;;5035953;28;20119;-52
2023/01/21 01:22:16;;;;;;;13.10;5.55;;;3.40;99.90;;;;;;5036153;28;20056;-52
2023/01/21 01:24:43;;;;;;;12.93;5.38;;;3.40;99.90;;;;;;5035926;28;20038;-52
2023/01/21 01:27:10;;;;;;;13.50;5.50;;;3.40;99.90;;;;;;5034596;28;20044;-51
2023/01/21 01:29:37;;;;;;;16.08;6.15;;;3.40;99.90;;;;;;5053095;28;20048;-48
2023/01/21 01:32:04;;;;;;;14.70;5.90;;;3.50;99.90;;;;;;5055595;28;20139;-50
2023/01/21 01:34:30;;;;;;;16.77;5.70;;;3.50;99.90;;;;;;5055577;28;20493;-52
2023/01/21 01:36:57;;;;;;;9.98;5.43;;;3.40;99.90;;;;;;5054521;28;20103;-52
2023/01/21 01:39:24;;;;;;;12.00;5.18;;;3.40;99.90;;;;;;5055820;28;20037;-54
2023/01/21 01:41:50;;;;;;;15.77;5.78;;;3.40;99.90;;;;;;5055791;28;20045;-49
2023/01/21 01:44:17;;;;;;;15.52;5.35;;;3.40;99.90;;;;;;5055237;28;20041;-49
2023/01/21 01:46:44;;;;;;;12.27;5.68;;;3.30;99.90;;;;;;5054292;28;20037;-47
2023/01/21 01:49:11;;;;;;;14.48;5.88;;;3.30;99.90;;;;;;5055350;28;20192;-49
2023/01/21 01:51:37;;;;;;;11.68;5.22;;;3.30;99.90;;;;;;5055338;28;20481;-48
2023/01/21 01:54:04;;;;;;;13.07;5.43;;;3.30;99.90;;;;;;5055455;28;20072;-60
2023/01/21 01:56:31;;;;;;;17.63;5.75;;;3.30;99.90;;;;;;5055230;28;20083;-48
2023/01/21 01:58:58;;;;;;;12.95;5.13;;;3.30;99.90;;;;;;5055414;28;20052;-51
2023/01/21 02:01:24;;;;;;;11.77;5.40;;;3.30;99.90;;;;;;5053792;28;20049;-51
2023/01/21 02:03:58;;;;;;;12.57;5.57;;;3.30;99.90;;;;;;5053703;28;20490;-52
2023/01/21 02:06:25;;;;;;;12.35;5.75;;;3.30;99.90;;;;;;5054846;28;20037;-54
2023/01/21 02:08:51;;;;;;;13.75;5.78;;;3.30;99.90;;;;;;5055672;28;20053;-54
2023/01/21 02:11:18;;;;;;;10.25;5.43;;;3.30;99.90;;;;;;5055683;28;20073;-52
2023/01/21 02:13:45;;;;;;;21.48;8.95;;;3.20;99.90;;;;;;5055141;28;20061;-51
2023/01/21 02:16:11;;;;;;;13.63;5.80;;;3.20;99.90;;;;;;5055275;28;20064;-49
2023/01/21 02:18:38;;;;;;;12.38;6.50;;;3.10;99.90;;;;;;5055492;28;20045;-47
2023/01/21 02:21:05;;;;;;;14.23;6.18;;;3.10;99.90;;;;;;5055242;28;20045;-53
2023/01/21 02:23:32;;;;;;;13.55;6.60;;;3.00;99.90;;;;;;5055439;28;20053;-52
2023/01/21 02:25:59;;;;;;;10.07;5.60;;;2.90;99.90;;;;;;5054865;28;20499;-49
2023/01/21 02:28:25;;;;;;;11.23;5.80;;;2.90;99.90;;;;;;5053802;28;20053;-50
2023/01/21 02:30:52;;;;;;;14.98;6.45;;;2.80;99.90;;;;;;5054932;28;20476;-50
2023/01/21 02:33:19;;;;;;;12.77;5.85;;;2.70;99.90;;;;;;5054949;28;20087;-52
2023/01/21 02:35:46;;;;;;;17.23;6.47;;;2.70;99.90;;;;;;5054890;28;20239;-52
2023/01/21 02:38:12;;;;;;;10.15;6.25;;;2.60;99.90;;;;;;5054735;28;20381;-50
2023/01/21 02:40:39;;;;;;;15.23;8.43;;;2.50;99.90;;;;;;5053409;28;20416;-49
2023/01/21 02:43:06;;;;;;;13.98;7.47;;;2.50;99.90;;;;;;5054577;28;20094;-53
2023/01/21 02:45:33;;;;;;;13.05;7.38;;;2.40;99.90;;;;;;5055017;28;20090;-50
2023/01/21 02:48:05;;;;;;;17.25;6.70;;;2.30;99.90;;;;;;5053465;28;20045;-48
2023/01/21 02:50:32;;;;;;;12.65;6.47;;;2.30;99.90;;;;;;5054632;28;20041;-52
2023/01/21 02:52:58;;;;;;;12.80;6.43;;;2.20;99.90;;;;;;5054723;28;20473;-53
2023/01/21 02:55:25;;;;;;;13.32;6.80;;;2.20;99.90;;;;;;5054967;28;20053;-53
2023/01/21 02:57:52;;;;;;;12.02;6.10;;;2.20;99.90;;;;;;5054320;28;20098;-48
2023/01/21 03:00:19;;;;;;;12.48;6.72;;;2.10;99.90;;;;;;5054802;28;20052;-49
2023/01/21 03:02:45;;;;;;;15.85;7.32;;;2.00;99.90;;;;;;5054253;28;20047;-53
2023/01/21 03:05:13;;;;;;;14.43;7.05;;;1.90;99.90;;;;;;5054028;28;20091;-52
2023/01/21 03:07:40;;;;;;;14.38;7.07;;;1.90;99.90;;;;;;5054498;28;20041;-50
2023/01/21 03:10:06;;;;;;;13.25;6.82;;;1.80;99.90;;;;;;5054380;28;20532;-55
2023/01/21 03:12:33;;;;;;;17.40;7.50;;;1.70;99.90;;;;;;5054404;28;20087;-51
2023/01/21 03:17:45;;;;;;;14.50;6.28;;;1.60;99.90;;;;;;5054459;28;20041;-47
2023/01/21 03:20:12;;;;;;;17.77;7.03;;;1.60;99.90;;;;;;5054178;28;20523;-53
2023/01/21 03:22:39;;;;;;;11.27;6.22;;;1.50;99.90;;;;;;5054038;28;20057;-54
2023/01/21 03:25:06;;;;;;;15.10;7.47;;;1.50;99.90;;;;;;5054028;28;20538;-54
2023/01/21 03:27:32;;;;;;;17.35;7.22;;;1.40;99.90;;;;;;5052892;28;20060;-50
2023/01/21 03:29:59;;;;;;;13.13;7.05;;;1.40;99.90;;;;;;5054100;28;20037;-47
2023/01/21 03:32:26;;;;;;;14.15;7.28;;;1.40;99.90;;;;;;5054042;28;20037;-49
2023/01/21 03:34:53;;;;;;;12.85;7.10;;;1.30;99.90;;;;;;5053880;28;20044;-49
2023/01/21 03:37:19;;;;;;;12.25;6.90;;;1.20;99.90;;;;;;5053710;28;20114;-52
2023/01/21 03:39:46;;;;;;;15.90;7.82;;;1.20;99.90;;;;;;5053445;28;20091;-51
2023/01/21 03:42:13;;;;;;;12.60;6.65;;;1.10;99.90;;;;;;5053651;28;20045;-49
2023/01/21 03:44:40;;;;;;;16.00;8.32;;;1.10;99.90;;;;;;5053743;28;20037;-52
2023/01/21 03:47:06;;;;;;;12.38;7.45;;;1.00;99.90;;;;;;5053783;28;20045;-54
2023/01/21 03:49:33;;;;;;;15.30;6.72;;;1.00;99.90;;;;;;5053480;28;20119;-48
2023/01/21 03:52:00;;;;;;;13.48;6.78;;;1.00;99.90;;;;;;5053459;28;20073;-49
2023/01/21 03:54:26;;;;;;;15.70;6.85;;;0.90;99.90;;;;;;5053674;28;20052;-52
2023/01/21 03:56:53;;;;;;;14.18;7.30;;;0.90;99.90;;;;;;5053343;28;20139;-49
2023/01/21 03:59:20;;;;;;;12.65;6.80;;;0.90;99.90;;;;;;5053477;28;20415;-51
2023/01/21 04:01:46;;;;;;;15.52;7.00;;;0.90;99.90;;;;;;5052231;28;20124;-54
2023/01/21 04:04:13;;;;;;;12.63;6.82;;;0.90;99.90;;;;;;5053746;28;20094;-51
2023/01/21 04:06:40;;;;;;;13.95;7.63;;;0.80;99.90;;;;;;5053150;28;20045;-52
2023/01/21 04:09:07;;;;;;;12.05;7.32;;;0.80;99.90;;;;;;5053823;28;20041;-49
2023/01/21 04:11:34;;;;;;;12.52;8.10;;;0.70;99.90;;;;;;5053138;28;20124;-53
2023/01/21 04:14:00;;;;;;;13.35;7.50;;;0.80;99.90;;;;;;5053282;28;20527;-50
2023/01/21 04:16:27;;;;;;;15.20;8.15;;;0.80;99.90;;;;;;5057589;28;20383;-54
2023/01/21 04:18:54;;;;;;;10.68;7.45;;;0.70;99.90;;;;;;5057664;28;20525;-55
2023/01/21 04:21:21;;;;;;;15.80;7.50;;;0.70;99.90;;;;;;5057295;28;20045;-53
2023/01/21 04:23:47;;;;;;;11.77;7.25;;;0.70;99.90;;;;;;5057348;28;20048;-49
2023/01/21 04:26:15;;;;;;;15.13;7.95;;;0.70;99.90;;;;;;5057422;28;20041;-52
2023/01/21 04:28:42;;;;;;;16.50;8.00;;;0.60;99.90;;;;;;5057293;28;20113;-50
2023/01/21 04:31:08;;;;;;;11.65;7.72;;;0.60;99.90;;;;;;5056984;28;20033;-47
2023/01/21 04:33:35;;;;;;;12.45;7.85;;;0.60;99.90;;;;;;5057281;28;20094;-52
2023/01/21 04:36:02;;;;;;;12.80;8.02;;;0.50;99.90;;;;;;5056973;28;20106;-50
2023/01/21 04:38:29;;;;;;;13.98;7.68;;;0.50;99.90;;;;;;5057067;28;20475;-50
2023/01/21 04:40:55;;;;;;;12.00;7.35;;;0.50;99.90;;;;;;5056783;28;20049;-51
2023/01/21 04:43:22;;;;;;;13.50;7.60;;;0.40;99.90;;;;;;5057216;28;20484;-51
2023/01/21 04:45:49;;;;;;;13.27;7.45;;;0.40;99.90;;;;;;5056724;28;20041;-50
2023/01/21 04:48:16;;;;;;;14.02;7.97;;;0.40;99.90;;;;;;5056908;28;20044;-51
2023/01/21 04:50:43;;;;;;;12.80;8.25;;;0.30;99.90;;;;;;5056777;28;20385;-48
2023/01/21 04:53:09;;;;;;;15.73;8.02;;;0.30;99.90;;;;;;5056765;28;20425;-49
2023/01/21 04:55:36;;;;;;;14.18;7.78;;;0.30;99.90;;;;;;5056659;28;20476;-54
2023/01/21 04:58:03;;;;;;;14.13;8.35;;;0.30;99.90;;;;;;5056638;28;20069;-49
2023/01/21 05:00:30;;;;;;;10.80;7.95;;;0.30;99.90;;;;;;5056766;28;20051;-47
2023/01/21 05:02:56;;;;;;;15.00;7.28;;;0.20;99.90;;;;;;5056724;28;20095;-49
2023/01/21 05:05:23;;;;;;;13.13;8.20;;;0.20;99.90;;;;;;5056464;28;20151;-52
2023/01/21 05:07:50;;;;;;;19.52;10.20;;;0.20;99.90;;;;;;5056489;28;20041;-50
2023/01/21 05:10:16;;;;;;;12.00;7.13;;;0.20;99.90;;;;;;5056079;28;20094;-51
2023/01/21 05:12:43;;;;;;;15.15;7.30;;;0.10;99.90;;;;;;5056781;28;20037;-50
2023/01/21 05:15:10;;;;;;;18.02;7.35;;;0.10;99.90;;;;;;5055308;28;20056;-48
2023/01/21 05:17:37;;;;;;;11.65;7.72;;;0.10;99.90;;;;;;5053937;28;20041;-49
2023/01/21 05:20:04;;;;;;;12.48;6.85;;;0.00;99.90;;;;;;5055092;28;20049;-51
2023/01/21 05:22:30;;;;;;;12.82;7.15;;;0.00;99.90;;;;;;5054046;28;20041;-47
2023/01/21 05:24:59;;;;;;;14.18;7.68;;;0.00;99.90;;;;;;5054399;28;20464;-54
2023/01/21 05:27:26;;;;;;;15.52;7.30;;;0.00;99.90;;;;;;5055056;28;20132;-49
2023/01/21 05:29:52;;;;;;;12.57;7.90;;;0.00;99.90;;;;;;5055220;28;20045;-50
2023/01/21 05:32:19;;;;;;;12.63;8.30;;;0.00;99.90;;;;;;5054666;28;20045;-53
2023/01/21 05:34:46;;;;;;;12.52;7.97;;;0.00;99.90;;;;;;5054988;28;20048;-48
2023/01/21 05:37:13;;;;;;;15.45;7.55;;;0.00;99.90;;;;;;5054662;28;20055;-52
2023/01/21 05:39:40;;;;;;;16.02;8.00;;;0.00;99.90;;;;;;5054920;28;20044;-51
2023/01/21 05:42:06;;;;;;;13.82;7.63;;;0.00;99.90;;;;;;5054789;28;20072;-52
2023/01/21 05:44:33;;;;;;;13.32;8.85;;;-0.10;99.90;;;;;;5054674;28;20041;-52
2023/01/21 05:47:00;;;;;;;14.27;8.10;;;-0.10;99.90;;;;;;5053449;28;20033;-52
2023/01/21 05:49:26;;;;;;;16.33;8.00;;;-0.10;99.90;;;;;;5054918;28;20099;-53
2023/01/21 05:51:53;;;;;;;19.40;8.70;;;-0.10;99.90;;;;;;5054474;28;20045;-52
2023/01/21 05:54:20;;;;;;;14.32;8.05;;;-0.10;99.90;;;;;;5054941;28;20095;-50
2023/01/21 05:56:47;;;;;;;13.35;8.52;;;-0.10;99.90;;;;;;5054709;28;20045;-50
2023/01/21 05:59:13;;;;;;;18.85;8.60;;;-0.10;99.90;;;;;;5054565;28;20535;-52
2023/01/21 06:01:40;;;;;;;15.50;8.07;;;-0.10;99.90;;;;;;5053237;28;20044;-52
2023/01/21 06:04:07;;;;;;;12.55;8.15;;;-0.10;99.90;;;;;;5053466;28;20037;-51
2023/01/21 06:06:34;;;;;;;15.73;9.18;;;0.00;99.90;;;;;;5054307;28;20047;-52
2023/01/21 06:09:00;;;;;;;16.33;8.68;;;0.00;99.90;;;;;;5054727;28;20468;-49
2023/01/21 06:11:27;;;;;;;13.77;8.13;;;0.00;99.90;;;;;;5054496;28;20094;-52
2023/01/21 06:13:54;;;;;;;15.38;8.80;;;0.10;99.90;;;;;;5012422;28;1203880;-52
2023/01/21 06:16:20;;;;;;;14.43;8.45;;;0.10;99.90;;;;;;5055163;28;20095;-52
2023/01/21 06:18:47;;;;;;;12.85;8.23;;;0.10;99.90;;;;;;5055457;28;20087;-54
2023/01/21 06:21:14;;;;;;;16.88;9.15;;;0.10;99.90;;;;;;5054974;28;20041;-52
2023/01/21 06:23:40;;;;;;;13.63;8.65;;;0.20;99.90;;;;;;5055183;28;20041;-53
2023/01/21 06:26:07;;;;;;;12.65;8.75;;;0.20;99.90;;;;;;5055032;28;20439;-49
2023/01/21 06:28:34;;;;;;;18.13;8.80;;;0.30;99.90;;;;;;5054915;28;20083;-53
2023/01/21 06:31:01;;;;;;;16.40;9.57;;;0.30;99.90;;;;;;5054780;28;20049;-48
2023/01/21 06:33:27;;;;;;;13.02;8.25;;;0.30;99.90;;;;;;5054928;28;20040;-50
2023/01/21 06:35:54;;;;;;;14.48;8.90;;;0.40;99.90;;;;;;5054804;28;20045;-49
2023/01/21 06:38:21;;;;;;;13.15;9.07;;;0.40;99.90;;;;;;5053819;28;20040;-53
2023/01/21 06:40:48;;;;;;;18.15;9.75;;;0.50;99.90;;;;;;5054767;28;20048;-50
2023/01/21 06:43:14;;;;;;;14.10;9.07;;;0.50;99.90;;;;;;5054656;28;20045;-49
2023/01/21 06:45:41;;;;;;;15.50;9.63;;;0.50;99.90;;;;;;5054516;28;20076;-47
2023/01/21 06:48:08;;;;;;;12.25;8.63;;;0.50;99.90;;;;;;5054307;28;20033;-50
2023/01/21 06:50:35;;;;;;;16.23;10.05;;;0.50;99.90;;;;;;5054833;28;20072;-52
2023/01/21 06:53:02;;;;;;;15.95;9.40;;;0.60;99.90;;;;;;5054848;28;20041;-53
2023/01/21 06:55:28;;;;;;;14.88;9.43;;;0.60;99.90;;;;;;5054186;28;20041;-51
2023/01/21 06:57:55;;;;;;;16.75;10.02;;;0.60;99.90;;;;;;5054480;28;20443;-49
2023/01/21 07:00:22;;;;;;;18.98;9.98;;;0.60;99.90;;;;;;5054168;28;20468;-53
2023/01/21 07:02:48;;;;;;;15.43;10.23;;;0.60;99.90;;;;;;5054587;28;20041;-52
2023/01/21 07:05:15;;;;;;;15.50;10.73;;;0.60;99.90;;;;;;5054648;28;20116;-48
2023/01/21 07:07:42;;;;;;;14.73;9.88;;;0.60;99.90;;;;;;5054261;28;20045;-49
2023/01/21 07:10:09;;;;;;;15.25;10.02;;;0.60;99.90;;;;;;5054423;28;20045;-49
2023/01/21 07:12:36;;;;;;;16.23;10.32;;;0.60;99.90;;;;;;5053904;28;20488;-50
2023/01/21 07:15:03;;;;;;;17.50;10.02;;;0.50;99.90;;;;;;5052656;28;20079;-47
2023/01/21 07:17:29;;;;;;;20.83;11.00;;;0.50;99.90;;;;;;5054159;28;20041;-51
2023/01/21 07:19:56;;;;;;;19.30;10.85;;;0.50;99.90;;;;;;5053067;28;20048;-51
2023/01/21 07:22:23;;;;;;;15.07;10.68;;;0.50;99.90;;;;;;5053768;28;20507;-50
2023/01/21 07:24:50;;;;;;;16.10;10.38;;;0.40;99.90;;;;;;5053656;28;20045;-50
2023/01/21 07:27:16;;;;;;;16.95;10.60;;;0.40;99.90;;;;;;5053753;28;20098;-51
2023/01/21 07:29:43;;;;;;;17.40;11.18;;;0.30;99.90;;;;;;5054100;28;20487;-53
2023/01/21 07:32:10;;;;;;;20.38;11.20;;;0.30;99.90;;;;;;5054174;28;20090;-51
2023/01/21 07:34:36;;;;;;;16.52;11.32;;;0.20;99.90;;;;;;5053774;28;20083;-51
2023/01/21 07:37:03;;;;;;;17.08;10.93;;;0.20;99.90;;;;;;5053720;28;20044;-48
2023/01/21 07:39:30;;;;;;;18.98;11.25;;;0.10;99.90;;;;;;5054031;28;20123;-46
2023/01/21 07:41:57;;;;;;;16.80;11.32;;;0.10;99.90;;;;;;5054031;28;20190;-50
2023/01/21 07:44:25;;;;;;;18.05;10.93;;;0.10;99.90;;;;;;5052238;28;20373;-47
2023/01/21 07:46:52;;;;;;;17.35;11.00;;;0.00;99.90;;;;;;5053583;28;20048;-49
2023/01/21 07:49:18;;;;;;;18.65;11.32;;;0.00;99.90;;;;;;5053791;28;20037;-50
2023/01/21 07:51:45;;;;;;;17.35;11.05;;;0.00;99.90;;;;;;5053406;28;20075;-52
2023/01/21 07:54:12;;;;;;;18.13;10.77;;;-0.10;99.90;;;;;;5053783;28;20044;-53
2023/01/21 07:56:39;;;;;;;17.23;10.50;;;-0.10;99.90;;;;;;5053207;28;20377;-49
2023/01/21 07:59:05;;;;;;;19.70;11.93;;;-0.10;99.90;;;;;;5053365;28;20124;-48
2023/01/21 08:01:32;;;;;;;20.27;11.93;;;-0.20;99.90;;;;;;5053356;28;20480;-47
2023/01/21 08:03:59;;;;;;;18.95;11.70;;;-0.20;99.90;;;;;;5053676;28;20128;-47
2023/01/21 08:06:26;;;;;;;19.80;13.07;;;-0.20;99.90;;;;;;5053221;28;20052;-49
2023/01/21 08:08:52;;;;;;;20.42;12.90;;;-0.20;99.90;;;;;;5053304;28;20052;-48
2023/01/21 08:11:19;;;;;;;22.48;15.27;;;-0.20;99.90;;;;;;5052476;28;20112;-52
2023/01/21 08:13:46;;;;;;;21.63;13.63;;;-0.20;99.90;;;;;;5052935;28;20049;-53
2023/01/21 08:16:13;;;;;;;25.40;13.10;;;-0.20;99.90;;;;;;5053528;28;20064;-49
2023/01/21 08:18:39;;;;;;;18.33;12.50;;;-0.20;99.90;;;;;;5053009;28;20047;-52
2023/01/21 08:21:06;;;;;;;20.73;11.70;;;-0.30;99.90;;;;;;5053399;28;20103;-51
2023/01/21 08:23:33;;;;;;;18.88;11.55;;;-0.30;99.90;;;;;;5053671;28;20080;-48
2023/01/21 08:26:00;;;;;;;22.35;11.68;;;-0.30;99.90;;;;;;5053214;28;20065;-51
2023/01/21 08:28:27;;;;;;;19.55;12.13;;;-0.20;99.90;;;;;;5052968;28;20055;-50
2023/01/21 08:30:53;;;;;;;19.38;12.43;;;-0.20;99.90;;;;;;5052167;28;20037;-47
2023/01/21 08:33:20;;;;;;;21.35;13.10;;;-0.30;99.90;;;;;;5053575;28;20037;-53
2023/01/21 08:35:47;;;;;;;20.55;12.50;;;-0.20;99.90;;;;;;5052907;28;20068;-53
2023/01/21 08:38:13;;;;;;;22.13;13.40;;;-0.20;99.90;;;;;;5053087;28;20045;-52
2023/01/21 08:40:40;;;;;;;18.13;12.40;;;-0.30;99.90;;;;;;5052786;28;20103;-52
2023/01/21 08:43:07;;;;;;;21.45;12.40;;;-0.30;99.90;;;;;;5052902;28;20099;-52
2023/01/21 08:45:34;;;;;;;26.08;13.00;;;-0.30;99.90;;;;;;5052712;28;20473;-52
2023/01/21 08:48:01;;;;;;;18.02;11.32;;;-0.20;99.90;;;;;;5035565;28;20049;-51
2023/01/21 08:50:28;;;;;;;20.90;12.27;;;-0.20;99.90;;;;;;5032419;28;20115;-51
2023/01/21 08:52:55;;;;;;;19.00;12.30;;;-0.20;99.90;;;;;;5031145;28;20050;-52
2023/01/21 08:55:23;;;;;;;21.60;13.90;;;-0.20;99.90;;;;;;5032859;28;20033;-51
2023/01/21 08:57:52;;;;;;;23.65;13.75;;;-0.20;99.90;;;;;;5032806;28;20056;-51
2023/01/21 09:00:19;;;;;;;22.83;13.60;;;-0.20;99.90;;;;;;5033659;28;20045;-47
2023/01/21 09:02:45;;;;;;;19.60;12.95;;;-0.10;99.90;;;;;;5036973;28;20469;-48
2023/01/21 09:05:12;;;;;;;22.50;13.60;;;-0.20;99.90;;;;;;5035140;28;20409;-52
2023/01/21 09:07:39;;;;;;;24.25;14.10;;;-0.20;99.90;;;;;;5036638;28;20041;-49
2023/01/21 09:10:06;;;;;;;23.15;15.23;;;-0.10;99.90;;;;;;5036850;28;20057;-49
2023/01/21 09:12:32;;;;;;;21.08;14.02;;;-0.10;99.90;;;;;;5036761;28;20037;-52
2023/01/21 09:14:59;;;;;;;19.13;14.00;;;0.00;99.90;;;;;;5036242;28;20079;-55
2023/01/21 09:17:26;;;;;;;25.92;15.75;;;0.00;99.90;;;;;;5035059;28;20049;-51
2023/01/21 09:19:52;;;;;;;21.83;14.52;;;0.00;99.90;;;;;;5035945;28;20493;-52
2023/01/21 09:22:21;;;;;;;21.55;15.23;;;0.10;99.90;;;;;;5036375;28;20069;-51
2023/01/21 09:24:47;;;;;;;18.38;13.18;;;0.10;99.90;;;;;;5036328;28;20535;-52
2023/01/21 09:27:14;;;;;;;26.92;13.88;;;0.20;99.90;;;;;;5035796;28;20107;-49
2023/01/21 09:29:41;;;;;;;23.13;14.20;;;0.20;99.90;;;;;;5036026;28;20473;-50
2023/01/21 09:32:08;;;;;;;22.63;16.27;;;0.30;99.90;;;;;;5036098;28;20073;-49
2023/01/21 09:34:35;;;;;;;25.73;16.58;;;0.30;99.90;;;;;;5035851;28;20045;-50
2023/01/21 09:37:03;;;;;;;21.70;14.95;;;0.40;99.90;;;;;;5035834;28;20045;-49
2023/01/21 09:39:30;;;;;;;25.80;15.02;;;0.40;99.90;;;;;;5036174;28;20052;-48
2023/01/21 09:41:57;;;;;;;25.38;14.65;;;0.40;99.90;;;;;;5034983;28;20049;-50
2023/01/21 09:44:24;;;;;;;23.65;14.68;;;0.50;99.90;;;;;;5035679;28;20049;-48
2023/01/21 09:46:51;;;;;;;21.63;13.85;;;0.50;99.90;;;;;;5035339;28;20038;-49
2023/01/21 09:49:18;;;;;;;22.42;15.50;;;0.50;99.90;;;;;;5035770;28;20076;-47
2023/01/21 09:51:45;;;;;;;24.00;14.93;;;0.60;99.90;;;;;;5035855;28;20095;-48
2023/01/21 09:54:11;;;;;;;25.15;15.43;;;0.60;99.90;;;;;;5035741;28;20046;-47
2023/01/21 09:56:38;;;;;;;23.95;15.80;;;0.70;99.90;;;;;;5035133;28;20053;-51
2023/01/21 09:59:05;;;;;;;32.88;17.23;;;0.70;99.90;;;;;;5035661;28;20041;-50
2023/01/21 10:01:31;;;;;;;25.88;16.02;;;0.80;99.90;;;;;;5035651;28;20107;-49
2023/01/21 10:03:58;;;;;;;32.15;17.50;;;0.90;99.90;;;;;;5035613;28;20049;-47
2023/01/21 10:06:25;;;;;;;26.80;17.23;;;0.90;99.90;;;;;;5035514;28;20048;-52
2023/01/21 10:08:52;;;;;;;27.63;16.83;;;1.00;99.90;;;;;;5035500;28;20124;-50
2023/01/21 10:11:20;;;;;;;30.25;17.83;;;1.00;99.90;;;;;;5035354;28;20049;-48
2023/01/21 10:13:47;;;;;;;30.73;19.20;;;1.10;99.90;;;;;;5034286;28;20057;-52
2023/01/21 10:16:14;;;;;;;27.65;17.77;;;1.10;99.90;;;;;;5033715;28;20045;-51
2023/01/21 10:18:41;;;;;;;28.45;16.60;;;1.20;99.90;;;;;;5035571;28;20064;-52
2023/01/21 10:21:08;;;;;;;26.15;17.70;;;1.30;99.90;;;;;;5035325;28;20100;-50
2023/01/21 10:23:34;;;;;;;25.50;16.83;;;1.30;99.90;;;;;;5035054;28;20048;-51
2023/01/21 10:26:01;;;;;;;25.02;16.33;;;1.30;99.90;;;;;;5034524;28;20042;-48
2023/01/21 10:28:29;;;;;;;25.88;16.08;;;1.30;99.90;;;;;;5034579;28;20050;-48
2023/01/21 10:30:56;;;;;;;23.90;16.65;;;1.40;99.90;;;;;;5034648;28;20504;-48
2023/01/21 10:33:23;;;;;;;26.70;16.63;;;1.40;99.90;;;;;;5034503;28;20041;-53
2023/01/21 10:35:49;;;;;;;25.20;16.23;;;1.40;99.90;;;;;;5035115;28;20048;-53
2023/01/21 10:38:17;;;;;;;30.73;17.33;;;1.50;99.90;;;;;;5034986;28;20040;-48
2023/01/21 10:40:43;;;;;;;26.52;17.40;;;1.50;99.90;;;;;;5034663;28;20050;-51
2023/01/21 10:43:10;;;;;;;26.00;18.17;;;1.60;99.90;;;;;;5032983;28;20045;-50
2023/01/21 10:45:37;;;;;;;29.13;18.55;;;1.70;99.90;;;;;;5034612;28;20037;-49
2023/01/21 10:48:03;;;;;;;26.67;17.40;;;1.70;99.90;;;;;;5034860;28;20041;-53
2023/01/21 10:50:30;;;;;;;29.27;18.85;;;1.70;99.90;;;;;;5034813;28;20107;-47
2023/01/21 10:52:57;;;;;;;33.25;19.30;;;1.80;99.90;;;;;;5034667;28;20068;-48
2023/01/21 10:55:24;;;;;;;26.98;16.92;;;1.80;99.90;;;;;;5034498;28;20041;-50
2023/01/21 10:57:50;;;;;;;26.92;18.55;;;1.90;99.90;;;;;;5034349;28;20041;-54
2023/01/21 11:00:17;;;;;;;23.52;17.10;;;2.00;99.90;;;;;;5034595;28;20050;-49
2023/01/21 11:02:49;;;;;;;26.77;17.15;;;2.00;99.90;;;;;;5034864;28;20049;-51
2023/01/21 11:05:16;;;;;;;30.52;18.38;;;2.10;99.90;;;;;;5034243;28;20045;-52
2023/01/21 11:07:43;;;;;;;25.45;18.00;;;2.10;99.90;;;;;;5034218;28;20132;-53
2023/01/21 11:10:09;;;;;;;27.00;18.45;;;2.20;99.90;;;;;;5034566;28;20037;-52
2023/01/21 11:12:36;;;;;;;25.60;17.23;;;2.20;99.90;;;;;;5034605;28;20147;-54
2023/01/21 11:15:03;;;;;;;24.77;17.67;;;2.30;99.90;;;;;;5033911;28;20447;-50
2023/01/21 11:17:30;;;;;;;24.75;17.20;;;2.30;99.90;;;;;;5034042;28;20163;-51
2023/01/21 11:19:56;;;;;;;29.52;17.58;;;2.40;99.90;;;;;;5034283;28;20045;-50
2023/01/21 11:22:24;;;;;;;26.92;17.83;;;2.40;99.90;;;;;;5033841;28;20161;-53
2023/01/21 11:24:51;;;;;;;27.80;18.30;;;2.40;99.90;;;;;;5050134;28;20074;-48
2023/01/21 11:27:18;;;;;;;30.38;17.52;;;2.50;99.90;;;;;;5053246;28;20065;-50
2023/01/21 11:29:45;;;;;;;30.27;18.17;;;2.50;99.90;;;;;;5053247;28;20051;-50
2023/01/21 11:32:12;;;;;;;26.77;17.67;;;2.60;99.90;;;;;;5058396;28;20033;-52
2023/01/21 11:34:39;;;;;;;26.92;17.42;;;2.60;99.90;;;;;;5052454;28;20502;-50
2023/01/21 11:37:05;;;;;;;25.48;18.02;;;2.70;99.90;;;;;;5053756;28;20044;-53
2023/01/21 11:39:32;;;;;;;26.70;18.35;;;2.70;99.90;;;;;;5052317;28;20522;-48
2023/01/21 11:41:59;;;;;;;25.98;17.55;;;2.70;99.90;;;;;;5053730;28;20114;-49
2023/01/21 11:44:26;;;;;;;28.30;17.40;;;2.70;99.90;;;;;;5051539;28;20045;-48
2023/01/21 11:46:52;;;;;;;24.58;15.90;;;2.80;99.90;;;;;;5053290;28;20040;-49
2023/01/21 11:49:19;;;;;;;24.85;14.30;;;2.80;99.90;;;;;;5047200;28;20041;-53
2023/01/21 11:51:46;;;;;;;24.92;14.27;;;3.00;99.90;;;;;;5033917;28;20046;-49
2023/01/21 11:54:13;;;;;;;24.73;14.20;;;3.00;99.90;;;;;;5038312;28;20033;-51
2023/01/21 11:56:42;;;;;;;21.33;14.10;;;3.10;99.90;;;;;;5052693;28;20048;-50
2023/01/21 11:59:08;;;;;;;20.92;13.73;;;3.10;99.90;;;;;;5053568;28;20063;-50
2023/01/21 12:01:35;;;;;;;18.88;13.18;;;3.20;99.90;;;;;;5052645;28;20044;-51
2023/01/21 12:04:02;;;;;;;20.23;12.95;;;3.20;99.90;;;;;;5053338;28;20114;-52
2023/01/21 12:06:29;;;;;;;18.52;13.18;;;3.20;99.90;;;;;;5053476;28;20498;-48
2023/01/21 12:08:56;;;;;;;22.45;12.73;;;3.20;99.90;;;;;;5053509;28;20047;-48
2023/01/21 12:11:23;;;;;;;21.80;13.10;;;3.30;99.90;;;;;;5052857;28;20044;-51
2023/01/21 12:13:49;;;;;;;21.98;12.20;;;3.30;99.90;;;;;;5053553;28;20041;-49
2023/01/21 12:16:16;;;;;;;19.08;12.77;;;3.30;99.90;;;;;;5052497;28;20480;-51
2023/01/21 12:18:43;;;;;;;16.73;11.57;;;3.30;99.90;;;;;;5053629;28;20037;-52
2023/01/21 12:21:10;;;;;;;23.48;11.82;;;3.40;99.90;;;;;;5053307;28;20037;-54
2023/01/21 12:23:36;;;;;;;20.80;12.00;;;3.50;99.90;;;;;;5052398;28;20099;-50
2023/01/21 12:26:03;;;;;;;17.15;11.80;;;3.60;99.90;;;;;;5053147;28;20037;-49
2023/01/21 12:28:30;;;;;;;18.65;11.68;;;3.60;99.90;;;;;;5052657;28;20037;-48
2023/01/21 12:30:57;;;;;;;21.05;12.73;;;3.60;99.90;;;;;;5053457;28;20033;-53
2023/01/21 12:33:24;;;;;;;20.10;13.13;;;3.60;99.90;;;;;;5051424;28;20116;-49
2023/01/21 12:35:50;;;;;;;21.30;12.80;;;3.60;99.90;;;;;;5054961;28;20098;-51
2023/01/21 12:38:17;;;;;;;24.90;12.52;;;3.70;99.90;;;;;;5056877;28;20064;-49
2023/01/21 12:40:44;;;;;;;20.80;12.65;;;3.70;99.90;;;;;;5056349;28;20354;-50